createdAt,value
2022-12-23T00:00:30.385Z,3.41
2022-12-23T00:06:00.916Z,3.39
2022-12-23T00:11:26.562Z,3.44
2022-12-23T00:16:51.888Z,3.38
2022-12-23T00:22:15.036Z,3.40
2022-12-23T00:27:41.839Z,3.52
2022-12-23T00:33:10.781Z,3.54
2022-12-23T00:38:57.526Z,3.61
2022-12-23T00:44:28.393Z,3.72
2022-12-23T00:49:57.885Z,3.75
2022-12-23T00:55:22.551Z,3.74
2022-12-23T01:01:11.756Z,3.82
2022-12-23T01:06:40.457Z,3.83
2022-12-23T01:12:04.982Z,3.83
2022-12-23T01:17:34.913Z,3.79
2022-12-23T01:22:58.227Z,3.86
2022-12-23T01:28:27.148Z,3.87
2022-12-23T01:33:55.120Z,3.93
2022-12-23T01:39:25.697Z,3.94
2022-12-23T01:44:58.418Z,4.04
2022-12-23T01:50:33.021Z,4.12
2022-12-23T01:56:04.704Z,4.11
2022-12-23T02:01:51.073Z,4.05
2022-12-23T02:07:35.646Z,4.05
2022-12-23T02:13:08.523Z,4.10
2022-12-23T02:18:56.147Z,4.17
2022-12-23T02:24:56.445Z,4.17
2022-12-23T02:30:43.999Z,4.22
2022-12-23T02:36:19.678Z,4.11
2022-12-23T02:41:55.960Z,4.08
2022-12-23T02:47:31.019Z,4.03
2022-12-23T02:53:05.791Z,4.07
2022-12-23T02:58:35.066Z,3.98
2022-12-23T03:04:03.395Z,4.02
2022-12-23T03:09:37.326Z,4.04
2022-12-23T03:15:18.705Z,4.10
2022-12-23T03:20:54.064Z,4.11
2022-12-23T03:26:23.170Z,4.17
2022-12-23T03:31:54.285Z,4.30
2022-12-23T03:37:26.088Z,4.24
2022-12-23T03:42:56.254Z,4.22
2022-12-23T03:48:27.779Z,4.38
2022-12-23T03:54:02.652Z,4.26
2022-12-23T03:59:34.348Z,4.37
2022-12-23T04:05:16.747Z,4.37
2022-12-23T04:10:47.766Z,4.47
2022-12-23T04:16:17.150Z,4.56
2022-12-23T04:21:40.192Z,4.67
2022-12-23T04:27:07.775Z,4.60
2022-12-23T04:32:33.291Z,4.80
2022-12-23T04:38:01.987Z,4.72
2022-12-23T04:43:32.267Z,4.75
2022-12-23T04:48:55.188Z,4.88
2022-12-23T04:54:18.863Z,4.79
2022-12-23T04:59:44.111Z,4.75
2022-12-23T05:05:08.230Z,4.66
2022-12-23T05:10:31.781Z,4.65
2022-12-23T05:15:56.847Z,4.70
2022-12-23T05:21:19.387Z,4.75
2022-12-23T05:26:50.754Z,4.70
2022-12-23T05:32:17.662Z,4.86
2022-12-23T05:37:41.758Z,4.93
2022-12-23T05:43:06.513Z,4.99
2022-12-23T05:48:30.900Z,5.08
2022-12-23T05:53:54.768Z,5.13
2022-12-23T05:59:20.775Z,5.27
2022-12-23T06:04:46.058Z,5.40
2022-12-23T06:10:11.928Z,5.35
2022-12-23T06:15:35.556Z,5.28
2022-12-23T06:20:59.721Z,5.10
2022-12-23T06:26:28.984Z,5.14
2022-12-23T06:31:54.470Z,5.03
2022-12-23T06:37:20.270Z,5.06
2022-12-23T06:42:44.433Z,5.14
2022-12-23T06:48:08.637Z,5.32
2022-12-23T06:53:34.258Z,5.34
2022-12-23T06:59:02.764Z,5.47
2022-12-23T07:04:32.113Z,5.53
2022-12-23T07:09:57.753Z,5.64
2022-12-23T07:15:24.937Z,5.70
2022-12-23T07:20:47.685Z,5.67
2022-12-23T07:26:15.189Z,5.70
2022-12-23T07:31:45.161Z,5.65
2022-12-23T07:37:14.191Z,5.64
2022-12-23T07:42:47.084Z,5.60
2022-12-23T07:48:15.818Z,5.60
2022-12-23T07:53:40.014Z,5.59
2022-12-23T07:59:10.459Z,5.61
2022-12-23T08:04:45.641Z,5.68
2022-12-23T08:10:15.032Z,5.67
2022-12-23T08:15:40.158Z,5.76
2022-12-23T08:21:13.051Z,5.78
2022-12-23T08:26:36.886Z,5.91
2022-12-23T08:32:04.957Z,5.92
2022-12-23T08:37:34.166Z,5.99
2022-12-23T08:43:03.533Z,6.04
2022-12-23T08:48:34.432Z,6.03
2022-12-23T08:54:04.578Z,5.98
2022-12-23T08:59:33.067Z,6.22
2022-12-23T09:04:57.759Z,6.01
2022-12-23T09:10:27.102Z,5.95
2022-12-23T09:15:52.158Z,5.86
2022-12-23T09:21:24.868Z,5.85
2022-12-23T09:26:50.950Z,5.92
2022-12-23T09:32:20.067Z,5.92
2022-12-23T09:37:50.286Z,5.95
2022-12-23T09:43:29.127Z,5.91
2022-12-23T09:49:01.478Z,6.02
2022-12-23T09:54:29.265Z,5.96
2022-12-23T10:00:04.030Z,6.07
2022-12-23T10:05:36.946Z,6.08
2022-12-23T10:11:08.028Z,6.12
2022-12-23T10:16:41.693Z,6.21
2022-12-23T10:22:16.225Z,6.13
2022-12-23T10:27:46.589Z,6.32
2022-12-23T10:33:22.252Z,6.17
2022-12-23T10:39:00.279Z,6.31
2022-12-23T10:44:47.303Z,6.43
2022-12-23T10:50:55.382Z,6.40
2022-12-23T10:56:24.415Z,6.37
2022-12-23T11:02:02.631Z,6.21
2022-12-23T11:07:47.345Z,6.14
2022-12-23T11:13:25.936Z,6.15
2022-12-23T11:19:01.636Z,6.23
2022-12-23T11:24:37.984Z,6.33
2022-12-23T11:30:19.344Z,6.26
2022-12-23T11:35:49.543Z,6.30
2022-12-23T11:41:21.986Z,6.33
2022-12-23T11:46:51.183Z,6.25
2022-12-23T11:52:23.469Z,6.33
2022-12-23T11:57:53.821Z,6.40
2022-12-23T12:03:27.613Z,6.24
2022-12-23T12:09:01.080Z,6.22
2022-12-23T12:14:33.893Z,6.35
2022-12-23T12:20:06.010Z,6.36
2022-12-23T12:25:41.738Z,6.27
2022-12-23T12:31:18.206Z,6.37
2022-12-23T12:36:57.153Z,6.33
2022-12-23T12:42:33.914Z,6.49
2022-12-23T12:48:22.663Z,6.55
2022-12-23T12:54:06.599Z,6.49
2022-12-23T12:59:39.945Z,6.38
2022-12-23T13:05:38.344Z,6.20
2022-12-23T17:12:24.298Z,5.08
2022-12-23T17:17:51.461Z,5.04
2022-12-23T17:23:27.457Z,5.00
2022-12-23T17:28:53.530Z,5.02
2022-12-23T17:34:24.577Z,4.98
2022-12-23T17:39:53.563Z,4.98
2022-12-23T17:45:25.634Z,4.98
2022-12-23T17:50:52.999Z,5.00
2022-12-23T17:56:18.311Z,4.93
2022-12-23T18:01:48.774Z,4.96
2022-12-23T18:07:13.797Z,4.96
2022-12-23T18:12:46.004Z,4.89
2022-12-23T18:18:26.102Z,4.91
2022-12-23T18:23:59.664Z,4.90
2022-12-23T18:29:28.514Z,4.88
2022-12-23T18:34:59.060Z,4.85
2022-12-23T18:40:26.796Z,4.87
2022-12-23T18:45:56.223Z,4.83
2022-12-23T18:51:26.833Z,4.89
2022-12-23T18:56:55.583Z,4.82
2022-12-23T19:02:20.301Z,4.72
2022-12-23T19:07:51.767Z,4.77
2022-12-23T19:13:21.598Z,4.80
2022-12-23T19:18:51.339Z,4.76
2022-12-23T19:24:22.039Z,4.77
2022-12-23T19:29:50.647Z,4.77
2022-12-23T19:35:20.101Z,4.82
2022-12-23T19:40:58.917Z,4.86
2022-12-23T19:46:27.998Z,4.83
2022-12-23T19:51:57.676Z,4.84
2022-12-23T19:57:28.015Z,4.85
2022-12-23T20:02:58.866Z,4.89
2022-12-23T20:08:29.008Z,4.94
2022-12-23T20:13:59.318Z,5.01
2022-12-23T20:19:29.057Z,5.05
2022-12-23T20:24:59.433Z,4.99
2022-12-23T20:30:30.133Z,4.96
2022-12-23T20:35:59.607Z,4.92
2022-12-23T20:41:30.327Z,4.83
2022-12-23T20:47:00.856Z,4.78
2022-12-23T20:52:29.532Z,4.71
2022-12-23T20:58:18.704Z,4.72
2022-12-23T21:03:48.591Z,4.75
2022-12-23T21:09:17.945Z,4.71
2022-12-23T21:14:46.812Z,4.69
2022-12-23T21:20:17.121Z,4.70
2022-12-23T21:25:46.706Z,4.66
2022-12-23T21:31:16.808Z,4.57
2022-12-23T21:36:46.587Z,4.58
2022-12-23T21:42:15.344Z,4.67
2022-12-23T21:47:44.298Z,4.67
2022-12-23T21:53:14.980Z,4.76
2022-12-23T21:58:43.644Z,4.74
2022-12-23T22:04:12.989Z,4.72
2022-12-23T22:09:42.725Z,4.68
2022-12-23T22:15:11.628Z,4.76
2022-12-23T22:20:44.277Z,4.62
2022-12-23T22:26:24.803Z,4.59
2022-12-23T22:31:54.998Z,4.67
2022-12-23T22:37:24.222Z,4.54
2022-12-23T22:42:50.956Z,4.64
2022-12-23T22:48:14.765Z,4.57
2022-12-23T22:53:38.471Z,4.58
2022-12-23T22:59:03.079Z,4.62
2022-12-23T23:04:31.853Z,4.65
2022-12-23T23:09:56.851Z,4.66
2022-12-23T23:15:23.504Z,4.64
2022-12-23T23:20:52.950Z,4.63
2022-12-23T23:26:22.402Z,4.77
2022-12-23T23:31:53.086Z,4.77
2022-12-23T23:37:22.342Z,4.75
2022-12-23T23:42:50.523Z,4.71
2022-12-23T23:48:16.379Z,4.80
2022-12-23T23:53:45.584Z,4.75
2022-12-23T23:59:14.800Z,4.71
